Time;durP1;ratioP1;P1;durP2;ratioP2;P2;SDS_P1;SDS_P2;PMS_P1;PMS_P2;Temp;Humidity;BMP_temperature;BMP_pressure;BME280_temperature;BME280_humidity;BME280_pressure;Samples;Min_cycle;Max_cycle;Signal;HPM_P1;HPM_P2
2023/05/24 00:02:02;;;;;;;;;;;;;;;;;;7371603;19;1917;-62
2023/05/24 00:04:30;;;;;;;;;;;;;;;;;;7369761;19;1729;-62
2023/05/24 00:07:02;;;;;;;;;;;;;;;;;;7370743;19;1738;-62
2023/05/24 00:09:30;;;;;;;;;;;;;;;;;;7369360;19;1819;-62
2023/05/24 00:11:58;;;;;;;;;;;;;;;;;;7369088;19;1861;-62
2023/05/24 00:14:26;;;;;;;;;;;;;;;;;;7369365;19;1920;-62
2023/05/24 00:16:54;;;;;;;;;;;;;;;;;;7373262;19;1644;-62
2023/05/24 00:19:22;;;;;;;;;;;;;;;;;;7370075;19;1831;-59
2023/05/24 00:21:51;;;;;;;;;;;;;;;;;;7370922;19;1951;-60
2023/05/24 00:24:19;;;;;;;;;;;;;;;;;;7371986;19;1721;-62
2023/05/24 00:26:48;;;;;;;;;;;;;;;;;;7372500;19;1619;-60
2023/05/24 00:29:16;;;;;;;;;;;;;;;;;;7368118;19;1901;-58
2023/05/24 00:31:44;;;;;;;;;;;;;;;;;;7368053;19;1915;-62
2023/05/24 00:34:12;;;;;;;;;;;;;;;;;;7367988;19;2036;-61
2023/05/24 00:36:40;;;;;;;;;;;;;;;;;;7370581;19;1838;-59
2023/05/24 00:39:10;;;;;;;;;;;;;;;;;;7359473;19;2121;-62
2023/05/24 00:41:38;;;;;;;;;;;;;;;;;;7368543;19;1549;-60
2023/05/24 00:44:09;;;;;;;;;;;;;;;;;;7369977;19;2015;-60
2023/05/24 00:46:37;;;;;;;;;;;;;;;;;;7368557;19;1791;-60
2023/05/24 00:49:05;;;;;;;;;;;;;;;;;;7365798;19;1847;-62
2023/05/24 00:51:34;;;;;;;;;;;;;;;;;;7366780;19;1846;-61
2023/05/24 00:54:02;;;;;;;;;;;;;;;;;;7369177;19;1883;-61
2023/05/24 00:56:30;;;;;;;;;;;;;;;;;;7365777;19;2147;-61
2023/05/24 00:58:58;;;;;;;;;;;;;;;;;;7365959;19;1756;-61
2023/05/24 01:01:29;;;;;;;;;;;;;;;;;;7367490;19;2207;-61
2023/05/24 01:03:58;;;;;;;;;;;;;;;;;;7369374;19;1856;-61
2023/05/24 01:06:27;;;;;;;;;;;;;;;;;;7365986;19;1806;-62
2023/05/24 01:08:55;;;;;;;;;;;;;;;;;;7366257;19;1627;-61
2023/05/24 01:11:23;;;;;;;;;;;;;;;;;;7365476;19;1994;-61
2023/05/24 01:13:51;;;;;;;;;;;;;;;;;;7367380;19;1894;-62
2023/05/24 01:16:20;;;;;;;;;;;;;;;;;;7366638;19;1916;-62
2023/05/24 01:18:48;;;;;;;;;;;;;;;;;;7363497;19;1863;-61
2023/05/24 01:21:16;;;;;;;;;;;;;;;;;;7357343;19;2149;-60
2023/05/24 01:23:44;;;;;;;;;;;;;;;;;;7368440;19;1816;-60
2023/05/24 01:26:12;;;;;;;;;;;;;;;;;;7364095;19;1887;-60
2023/05/24 01:28:42;;;;;;;;;;;;;;;;;;7363098;19;2001;-62
2023/05/24 01:31:10;;;;;;;;;;;;;;;;;;7363842;19;1846;-61
2023/05/24 01:33:38;;;;;;;;;;;;;;;;;;7366632;19;1905;-62
2023/05/24 01:36:06;;;;;;;;;;;;;;;;;;7363517;19;1968;-62
2023/05/24 01:38:34;;;;;;;;;;;;;;;;;;7361983;19;1868;-61
2023/05/24 01:41:02;;;;;;;;;;;;;;;;;;7367834;19;1815;-62
2023/05/24 01:43:30;;;;;;;;;;;;;;;;;;7366727;19;1783;-62
2023/05/24 01:45:59;;;;;;;;;;;;;;;;;;7366261;19;1881;-62
2023/05/24 01:48:27;;;;;;;;;;;;;;;;;;7364362;19;1901;-61
2023/05/24 01:50:55;;;;;;;;;;;;;;;;;;7367630;19;1585;-60
2023/05/24 01:53:25;;;;;;;;;;;;;;;;;;7363086;19;1946;-61
2023/05/24 01:55:53;;;;;;;;;;;;;;;;;;7365381;19;2126;-61
2023/05/24 01:58:21;;;;;;;;;;;;;;;;;;7365479;19;1932;-60
2023/05/24 02:00:50;;;;;;;;;;;;;;;;;;7364574;19;1873;-61
2023/05/24 02:03:18;;;;;;;;;;;;;;;;;;7364324;19;1900;-62
2023/05/24 02:05:46;;;;;;;;;;;;;;;;;;7366141;19;1740;-62
2023/05/24 02:08:14;;;;;;;;;;;;;;;;;;7362862;19;1918;-63
2023/05/24 02:10:42;;;;;;;;;;;;;;;;;;7366076;19;1729;-62
2023/05/24 02:13:10;;;;;;;;;;;;;;;;;;7363432;19;1852;-62
2023/05/24 02:15:40;;;;;;;;;;;;;;;;;;7364876;19;875;-61
2023/05/24 02:18:12;;;;;;;;;;;;;;;;;;7363876;19;1919;-62
2023/05/24 02:20:41;;;;;;;;;;;;;;;;;;7363099;19;882;-63
2023/05/24 02:23:09;;;;;;;;;;;;;;;;;;7362242;19;897;-62
2023/05/24 02:25:38;;;;;;;;;;;;;;;;;;7364879;19;800;-61
2023/05/24 02:28:06;;;;;;;;;;;;;;;;;;7364809;19;1860;-60
2023/05/24 02:30:34;;;;;;;;;;;;;;;;;;7365772;19;1948;-60
2023/05/24 02:33:02;;;;;;;;;;;;;;;;;;7366712;19;1874;-59
2023/05/24 02:35:32;;;;;;;;;;;;;;;;;;7367661;19;2266;-60
2023/05/24 02:38:00;;;;;;;;;;;;;;;;;;7363683;19;1974;-58
2023/05/24 02:40:28;;;;;;;;;;;;;;;;;;7368064;19;1474;-60
2023/05/24 02:42:56;;;;;;;;;;;;;;;;;;7366573;19;1785;-62
2023/05/24 02:45:24;;;;;;;;;;;;;;;;;;7364880;19;2096;-61
2023/05/24 02:47:52;;;;;;;;;;;;;;;;;;7363837;19;1887;-62
2023/05/24 02:50:21;;;;;;;;;;;;;;;;;;7365834;19;1466;-61
2023/05/24 02:52:49;;;;;;;;;;;;;;;;;;7363432;19;1903;-62
2023/05/24 02:55:17;;;;;;;;;;;;;;;;;;7364294;19;2059;-62
2023/05/24 02:57:46;;;;;;;;;;;;;;;;;;7362135;19;1912;-62
2023/05/24 03:00:15;;;;;;;;;;;;;;;;;;7362815;19;1654;-62
2023/05/24 03:02:46;;;;;;;;;;;;;;;;;;7368563;19;1651;-61
2023/05/24 03:05:14;;;;;;;;;;;;;;;;;;7371371;19;1662;-62
2023/05/24 03:07:42;;;;;;;;;;;;;;;;;;7368219;19;1946;-62
2023/05/24 03:10:10;;;;;;;;;;;;;;;;;;7370419;19;2016;-62
2023/05/24 03:12:39;;;;;;;;;;;;;;;;;;7369883;19;1927;-59
2023/05/24 03:15:08;;;;;;;;;;;;;;;;;;7372687;19;2265;-59
2023/05/24 03:17:36;;;;;;;;;;;;;;;;;;7369875;19;2044;-61
2023/05/24 03:20:04;;;;;;;;;;;;;;;;;;7371380;19;1467;-61
2023/05/24 03:22:32;;;;;;;;;;;;;;;;;;7369779;19;1809;-57
2023/05/24 03:25:01;;;;;;;;;;;;;;;;;;7370669;19;2176;-60
2023/05/24 03:27:29;;;;;;;;;;;;;;;;;;7368196;19;2057;-59
2023/05/24 03:29:57;;;;;;;;;;;;;;;;;;7368434;19;1890;-61
2023/05/24 03:32:28;;;;;;;;;;;;;;;;;;7368569;19;2336;-61
2023/05/24 03:34:58;;;;;;;;;;;;;;;;;;7369625;19;1685;-60
2023/05/24 03:37:26;;;;;;;;;;;;;;;;;;7368634;19;1741;-62
2023/05/24 03:39:54;;;;;;;;;;;;;;;;;;7369032;19;1852;-62
2023/05/24 03:42:40;;;;;;;;;;;;;;;;;;7368390;19;1645;-62
2023/05/24 03:45:08;;;;;;;;;;;;;;;;;;7367402;19;2064;-63
2023/05/24 03:47:37;;;;;;;;;;;;;;;;;;7368040;19;1677;-63
2023/05/24 03:50:05;;;;;;;;;;;;;;;;;;7368804;19;2120;-63
2023/05/24 03:52:33;;;;;;;;;;;;;;;;;;7369655;19;1845;-63
2023/05/24 03:55:01;;;;;;;;;;;;;;;;;;7368764;19;1915;-63
2023/05/24 03:57:29;;;;;;;;;;;;;;;;;;7368033;19;1990;-64
2023/05/24 03:59:59;;;;;;;;;;;;;;;;;;7367419;19;1871;-63
2023/05/24 04:02:27;;;;;;;;;;;;;;;;;;7368383;19;1729;-61
2023/05/24 04:04:56;;;;;;;;;;;;;;;;;;7369020;19;1848;-63
2023/05/24 04:07:24;;;;;;;;;;;;;;;;;;7368447;19;1833;-63
2023/05/24 04:09:52;;;;;;;;;;;;;;;;;;7367838;19;1918;-62
2023/05/24 04:12:21;;;;;;;;;;;;;;;;;;7368235;19;1861;-63
2023/05/24 04:14:50;;;;;;;;;;;;;;;;;;7366826;19;1760;-63
2023/05/24 04:17:18;;;;;;;;;;;;;;;;;;7368743;19;1762;-63
2023/05/24 04:19:47;;;;;;;;;;;;;;;;;;7366911;19;1734;-63
2023/05/24 04:22:16;;;;;;;;;;;;;;;;;;7366106;19;1831;-63
2023/05/24 04:24:44;;;;;;;;;;;;;;;;;;7366967;19;1647;-63
2023/05/24 04:27:12;;;;;;;;;;;;;;;;;;7367266;19;1927;-62
2023/05/24 04:29:41;;;;;;;;;;;;;;;;;;7368087;19;1890;-63
2023/05/24 04:32:09;;;;;;;;;;;;;;;;;;7368868;19;1955;-63
2023/05/24 04:34:41;;;;;;;;;;;;;;;;;;7367899;19;2057;-63
2023/05/24 04:37:09;;;;;;;;;;;;;;;;;;7367364;19;1886;-62
2023/05/24 04:39:37;;;;;;;;;;;;;;;;;;7370438;19;1304;-63
2023/05/24 04:42:06;;;;;;;;;;;;;;;;;;7368761;19;1771;-63
2023/05/24 04:44:34;;;;;;;;;;;;;;;;;;7367895;19;1760;-63
2023/05/24 04:47:02;;;;;;;;;;;;;;;;;;7367413;19;2123;-63
2023/05/24 04:49:30;;;;;;;;;;;;;;;;;;7368532;19;1859;-63
2023/05/24 04:51:58;;;;;;;;;;;;;;;;;;7367250;19;1922;-63
2023/05/24 04:54:27;;;;;;;;;;;;;;;;;;7366638;19;1993;-63
2023/05/24 04:56:55;;;;;;;;;;;;;;;;;;7368312;19;1900;-63
2023/05/24 04:59:23;;;;;;;;;;;;;;;;;;7367418;19;2228;-63
2023/05/24 05:01:51;;;;;;;;;;;;;;;;;;7368941;19;1896;-61
2023/05/24 05:04:19;;;;;;;;;;;;;;;;;;7367938;19;1913;-63
2023/05/24 05:06:47;;;;;;;;;;;;;;;;;;7369415;19;1713;-63
2023/05/24 05:09:16;;;;;;;;;;;;;;;;;;7365201;19;1904;-63
2023/05/24 05:11:44;;;;;;;;;;;;;;;;;;7367180;19;1899;-61
2023/05/24 05:14:12;;;;;;;;;;;;;;;;;;7364566;19;1855;-63
2023/05/24 05:16:41;;;;;;;;;;;;;;;;;;7366898;19;1814;-61
2023/05/24 05:19:09;;;;;;;;;;;;;;;;;;7364161;19;2138;-63
2023/05/24 05:21:38;;;;;;;;;;;;;;;;;;7367512;19;1684;-61
2023/05/24 05:24:06;;;;;;;;;;;;;;;;;;7368544;19;1653;-63
2023/05/24 05:26:34;;;;;;;;;;;;;;;;;;7367549;19;1614;-61
2023/05/24 05:29:03;;;;;;;;;;;;;;;;;;7362400;19;2015;-60
2023/05/24 05:31:31;;;;;;;;;;;;;;;;;;7367200;19;1901;-61
2023/05/24 05:33:59;;;;;;;;;;;;;;;;;;7364396;19;1923;-62
2023/05/24 05:36:27;;;;;;;;;;;;;;;;;;7366755;19;1929;-59
2023/05/24 05:38:56;;;;;;;;;;;;;;;;;;7363395;19;2082;-62
2023/05/24 05:41:24;;;;;;;;;;;;;;;;;;7365287;19;1684;-62
2023/05/24 05:43:52;;;;;;;;;;;;;;;;;;7365602;19;2120;-63
2023/05/24 05:46:21;;;;;;;;;;;;;;;;;;7366407;19;1981;-63
2023/05/24 05:48:49;;;;;;;;;;;;;;;;;;7363835;19;1979;-62
2023/05/24 05:51:17;;;;;;;;;;;;;;;;;;7366667;19;1953;-62
2023/05/24 05:53:45;;;;;;;;;;;;;;;;;;7365206;19;2052;-61
2023/05/24 05:56:13;;;;;;;;;;;;;;;;;;7368351;19;1973;-62
2023/05/24 05:58:42;;;;;;;;;;;;;;;;;;7362019;19;1776;-63
2023/05/24 06:01:10;;;;;;;;;;;;;;;;;;7367629;19;1880;-61
2023/05/24 06:03:38;;;;;;;;;;;;;;;;;;7368666;19;1646;-62
2023/05/24 06:06:06;;;;;;;;;;;;;;;;;;7366709;19;1685;-64
2023/05/24 06:08:35;;;;;;;;;;;;;;;;;;7363386;19;1757;-66
2023/05/24 06:11:03;;;;;;;;;;;;;;;;;;7367805;19;1707;-59
2023/05/24 06:13:31;;;;;;;;;;;;;;;;;;7363283;19;1850;-61
2023/05/24 06:16:00;;;;;;;;;;;;;;;;;;7367785;19;1969;-61
2023/05/24 06:18:29;;;;;;;;;;;;;;;;;;7364370;19;1713;-61
2023/05/24 06:20:57;;;;;;;;;;;;;;;;;;7366937;19;1909;-61
2023/05/24 06:23:25;;;;;;;;;;;;;;;;;;7364418;19;1817;-61
2023/05/24 06:25:53;;;;;;;;;;;;;;;;;;7367517;19;1463;-62
2023/05/24 06:28:21;;;;;;;;;;;;;;;;;;7361317;19;1802;-62
2023/05/24 06:30:50;;;;;;;;;;;;;;;;;;7367343;19;1468;-63
2023/05/24 06:33:18;;;;;;;;;;;;;;;;;;7364793;19;2044;-60
2023/05/24 06:35:46;;;;;;;;;;;;;;;;;;7365153;19;2101;-60
2023/05/24 06:38:14;;;;;;;;;;;;;;;;;;7368384;19;1865;-60
2023/05/24 06:40:43;;;;;;;;;;;;;;;;;;7372634;19;1911;-63
2023/05/24 06:43:11;;;;;;;;;;;;;;;;;;7374487;19;1463;-61
2023/05/24 06:45:41;;;;;;;;;;;;;;;;;;7369083;19;739;-62
2023/05/24 06:48:10;;;;;;;;;;;;;;;;;;7367328;19;1348;-62
2023/05/24 06:50:38;;;;;;;;;;;;;;;;;;7370238;19;1017;-62
2023/05/24 06:53:06;;;;;;;;;;;;;;;;;;7369133;19;1855;-63
2023/05/24 06:55:35;;;;;;;;;;;;;;;;;;7369589;19;790;-64
2023/05/24 06:58:04;;;;;;;;;;;;;;;;;;7368668;19;1273;-58
2023/05/24 07:00:32;;;;;;;;;;;;;;;;;;7368839;19;841;-61
2023/05/24 07:03:01;;;;;;;;;;;;;;;;;;7368847;19;765;-62
2023/05/24 07:05:29;;;;;;;;;;;;;;;;;;7369520;19;779;-63
2023/05/24 07:07:57;;;;;;;;;;;;;;;;;;7367802;19;1330;-63
2023/05/24 07:10:25;;;;;;;;;;;;;;;;;;7366924;19;1124;-63
2023/05/24 07:12:54;;;;;;;;;;;;;;;;;;7369143;19;1889;-63
2023/05/24 07:15:22;;;;;;;;;;;;;;;;;;7370058;19;851;-63
2023/05/24 07:17:50;;;;;;;;;;;;;;;;;;7367161;19;1360;-63
2023/05/24 07:20:18;;;;;;;;;;;;;;;;;;7368677;19;759;-63
2023/05/24 07:22:46;;;;;;;;;;;;;;;;;;7368867;19;818;-63
2023/05/24 07:25:15;;;;;;;;;;;;;;;;;;7368575;19;867;-63
2023/05/24 07:27:43;;;;;;;;;;;;;;;;;;7367054;19;1321;-64
2023/05/24 07:30:11;;;;;;;;;;;;;;;;;;7368866;19;790;-64
2023/05/24 07:32:39;;;;;;;;;;;;;;;;;;7368514;19;797;-63
2023/05/24 07:35:07;;;;;;;;;;;;;;;;;;7366037;19;1860;-63
2023/05/24 07:37:35;;;;;;;;;;;;;;;;;;7366572;19;1277;-63
2023/05/24 07:40:04;;;;;;;;;;;;;;;;;;7367937;19;795;-63
2023/05/24 07:42:32;;;;;;;;;;;;;;;;;;7368435;19;753;-61
2023/05/24 07:45:00;;;;;;;;;;;;;;;;;;7368372;19;813;-62
2023/05/24 07:47:28;;;;;;;;;;;;;;;;;;7367100;19;1337;-63
2023/05/24 07:49:57;;;;;;;;;;;;;;;;;;7367928;19;802;-62
2023/05/24 07:52:25;;;;;;;;;;;;;;;;;;7368223;19;859;-61
2023/05/24 07:54:53;;;;;;;;;;;;;;;;;;7366866;19;1834;-64
2023/05/24 07:57:21;;;;;;;;;;;;;;;;;;7366833;19;1300;-63
2023/05/24 07:59:49;;;;;;;;;;;;;;;;;;7366776;19;790;-62
2023/05/24 08:02:17;;;;;;;;;;;;;;;;;;7366152;19;755;-59
2023/05/24 08:04:46;;;;;;;;;;;;;;;;;;7366732;19;823;-62
2023/05/24 08:07:14;;;;;;;;;;;;;;;;;;7366665;19;1338;-63
2023/05/24 08:09:43;;;;;;;;;;;;;;;;;;7366861;19;869;-64
2023/05/24 08:12:11;;;;;;;;;;;;;;;;;;7367109;19;809;-64
2023/05/24 08:14:39;;;;;;;;;;;;;;;;;;7365188;19;1861;-63
2023/05/24 08:17:07;;;;;;;;;;;;;;;;;;7366937;19;1293;-64
2023/05/24 08:19:35;;;;;;;;;;;;;;;;;;7366096;19;842;-63
2023/05/24 08:22:05;;;;;;;;;;;;;;;;;;7366917;19;798;-63
2023/05/24 08:24:33;;;;;;;;;;;;;;;;;;7367683;19;763;-63
2023/05/24 08:27:03;;;;;;;;;;;;;;;;;;7366399;19;1269;-63
2023/05/24 08:29:31;;;;;;;;;;;;;;;;;;7366022;19;782;-62
2023/05/24 08:31:59;;;;;;;;;;;;;;;;;;7366028;19;820;-63
2023/05/24 08:34:28;;;;;;;;;;;;;;;;;;7365026;19;1826;-63
2023/05/24 08:36:56;;;;;;;;;;;;;;;;;;7367003;19;1299;-63
2023/05/24 08:39:24;;;;;;;;;;;;;;;;;;7365532;19;850;-63
2023/05/24 08:41:52;;;;;;;;;;;;;;;;;;7365415;19;826;-62
2023/05/24 08:44:21;;;;;;;;;;;;;;;;;;7366108;19;866;-63
2023/05/24 08:46:49;;;;;;;;;;;;;;;;;;7367158;19;783;-63
2023/05/24 08:49:17;;;;;;;;;;;;;;;;;;7363025;19;1266;-63
2023/05/24 08:51:45;;;;;;;;;;;;;;;;;;7366563;19;848;-63
2023/05/24 08:54:14;;;;;;;;;;;;;;;;;;7365386;19;1841;-63
2023/05/24 08:56:42;;;;;;;;;;;;;;;;;;7366280;19;805;-64
2023/05/24 08:59:12;;;;;;;;;;;;;;;;;;7360212;19;1750;-64
2023/05/24 09:01:40;;;;;;;;;;;;;;;;;;7365457;19;948;-64
2023/05/24 09:04:08;;;;;;;;;;;;;;;;;;7365783;19;794;-64
2023/05/24 09:06:36;;;;;;;;;;;;;;;;;;7365974;19;833;-64
2023/05/24 09:09:04;;;;;;;;;;;;;;;;;;7361597;19;1318;-63
2023/05/24 09:11:33;;;;;;;;;;;;;;;;;;7366247;19;853;-63
2023/05/24 09:14:01;;;;;;;;;;;;;;;;;;7364614;19;1845;-63
2023/05/24 09:16:29;;;;;;;;;;;;;;;;;;7366226;19;742;-64
2023/05/24 09:18:57;;;;;;;;;;;;;;;;;;7362217;19;1340;-64
2023/05/24 09:21:25;;;;;;;;;;;;;;;;;;7365575;19;831;-64
2023/05/24 09:23:53;;;;;;;;;;;;;;;;;;7364816;19;811;-64
2023/05/24 09:26:23;;;;;;;;;;;;;;;;;;7363479;19;806;-64
2023/05/24 09:28:52;;;;;;;;;;;;;;;;;;7362804;19;1338;-62
2023/05/24 09:31:20;;;;;;;;;;;;;;;;;;7365182;19;829;-64
2023/05/24 09:33:48;;;;;;;;;;;;;;;;;;7364666;19;1856;-62
2023/05/24 09:36:16;;;;;;;;;;;;;;;;;;7365633;19;866;-64
2023/05/24 09:38:44;;;;;;;;;;;;;;;;;;7362483;19;1376;-66
2023/05/24 09:41:12;;;;;;;;;;;;;;;;;;7365475;19;825;-65
2023/05/24 09:43:41;;;;;;;;;;;;;;;;;;7364978;19;798;-65
2023/05/24 09:46:09;;;;;;;;;;;;;;;;;;7365094;19;783;-64
2023/05/24 09:48:37;;;;;;;;;;;;;;;;;;7362191;19;1333;-64
2023/05/24 09:51:08;;;;;;;;;;;;;;;;;;7364034;19;792;-62
2023/05/24 09:53:36;;;;;;;;;;;;;;;;;;7364779;19;1869;-64
2023/05/24 09:56:04;;;;;;;;;;;;;;;;;;7364906;19;798;-64
2023/05/24 09:58:33;;;;;;;;;;;;;;;;;;7363373;19;1352;-64
2023/05/24 10:01:01;;;;;;;;;;;;;;;;;;7363494;19;813;-65
2023/05/24 10:03:29;;;;;;;;;;;;;;;;;;7363429;19;767;-65
2023/05/24 10:05:57;;;;;;;;;;;;;;;;;;7364246;19;853;-64
2023/05/24 10:08:26;;;;;;;;;;;;;;;;;;7361729;19;1274;-63
2023/05/24 10:10:54;;;;;;;;;;;;;;;;;;7363988;19;865;-61
2023/05/24 10:13:22;;;;;;;;;;;;;;;;;;7369262;19;850;-61
2023/05/24 10:15:50;;;;;;;;;;;;;;;;;;7369413;19;1841;-62
2023/05/24 10:18:19;;;;;;;;;;;;;;;;;;7369061;19;1243;-60
2023/05/24 10:20:47;;;;;;;;;;;;;;;;;;7370778;19;825;-62
2023/05/24 10:23:15;;;;;;;;;;;;;;;;;;7371218;19;818;-60
2023/05/24 10:25:43;;;;;;;;;;;;;;;;;;7370510;19;811;-61
2023/05/24 10:28:11;;;;;;;;;;;;;;;;;;7368892;19;1280;-62
2023/05/24 10:30:39;;;;;;;;;;;;;;;;;;7370547;19;756;-63
2023/05/24 10:33:08;;;;;;;;;;;;;;;;;;7370245;19;858;-60
2023/05/24 10:35:37;;;;;;;;;;;;;;;;;;7368970;19;1856;-64
2023/05/24 10:38:05;;;;;;;;;;;;;;;;;;7369051;19;1288;-61
2023/05/24 10:40:33;;;;;;;;;;;;;;;;;;7369769;19;844;-62
2023/05/24 10:43:01;;;;;;;;;;;;;;;;;;7370264;19;798;-62
2023/05/24 10:45:30;;;;;;;;;;;;;;;;;;7368973;19;748;-62
2023/05/24 10:47:58;;;;;;;;;;;;;;;;;;7368363;19;1291;-63
2023/05/24 10:50:26;;;;;;;;;;;;;;;;;;7369355;19;754;-60
2023/05/24 10:52:54;;;;;;;;;;;;;;;;;;7369986;19;810;-63
2023/05/24 10:55:22;;;;;;;;;;;;;;;;;;7368120;19;1845;-63
2023/05/24 10:57:51;;;;;;;;;;;;;;;;;;7367297;19;1274;-63
2023/05/24 11:00:19;;;;;;;;;;;;;;;;;;7369581;19;831;-65
2023/05/24 11:02:47;;;;;;;;;;;;;;;;;;7369082;19;853;-64
2023/05/24 11:05:15;;;;;;;;;;;;;;;;;;7369360;19;964;-63
2023/05/24 11:07:44;;;;;;;;;;;;;;;;;;7367359;19;1346;-64
2023/05/24 11:10:12;;;;;;;;;;;;;;;;;;7369607;19;848;-63
2023/05/24 11:12:41;;;;;;;;;;;;;;;;;;7370205;19;746;-63
2023/05/24 11:15:10;;;;;;;;;;;;;;;;;;7369210;19;1965;-64
2023/05/24 11:17:38;;;;;;;;;;;;;;;;;;7368447;19;1290;-64
2023/05/24 11:20:07;;;;;;;;;;;;;;;;;;7367998;19;771;-64
2023/05/24 11:22:39;;;;;;;;;;;;;;;;;;7366305;19;893;-64
2023/05/24 11:25:07;;;;;;;;;;;;;;;;;;7369150;19;767;-63
2023/05/24 11:27:35;;;;;;;;;;;;;;;;;;7368101;19;1345;-64
2023/05/24 11:30:04;;;;;;;;;;;;;;;;;;7368854;19;811;-64
2023/05/24 11:32:32;;;;;;;;;;;;;;;;;;7368316;19;784;-63
2023/05/24 11:35:01;;;;;;;;;;;;;;;;;;7367235;19;1841;-64
2023/05/24 11:37:29;;;;;;;;;;;;;;;;;;7367274;19;1333;-64
2023/05/24 11:39:57;;;;;;;;;;;;;;;;;;7368123;19;868;-64
2023/05/24 11:42:26;;;;;;;;;;;;;;;;;;7368144;19;813;-64
2023/05/24 11:44:54;;;;;;;;;;;;;;;;;;7368762;19;789;-64
2023/05/24 11:47:22;;;;;;;;;;;;;;;;;;7367012;19;1199;-63
2023/05/24 11:49:50;;;;;;;;;;;;;;;;;;7366920;19;936;-64
2023/05/24 11:52:18;;;;;;;;;;;;;;;;;;7366585;19;833;-63
2023/05/24 11:54:47;;;;;;;;;;;;;;;;;;7366492;19;1849;-64
2023/05/24 11:57:15;;;;;;;;;;;;;;;;;;7367523;19;1274;-63
2023/05/24 11:59:43;;;;;;;;;;;;;;;;;;7366633;19;845;-63
2023/05/24 12:02:11;;;;;;;;;;;;;;;;;;7367885;19;861;-63
2023/05/24 12:04:39;;;;;;;;;;;;;;;;;;7367508;19;810;-63
2023/05/24 12:07:08;;;;;;;;;;;;;;;;;;7367202;19;1344;-59
2023/05/24 12:09:36;;;;;;;;;;;;;;;;;;7366402;19;814;-61
2023/05/24 12:12:06;;;;;;;;;;;;;;;;;;7368061;19;838;-60
2023/05/24 12:14:34;;;;;;;;;;;;;;;;;;7366304;19;1837;-63
2023/05/24 12:17:02;;;;;;;;;;;;;;;;;;7367483;19;1364;-60
2023/05/24 12:19:33;;;;;;;;;;;;;;;;;;7366360;19;802;-63
2023/05/24 12:22:01;;;;;;;;;;;;;;;;;;7367429;19;818;-62
2023/05/24 12:24:29;;;;;;;;;;;;;;;;;;7367472;19;780;-64
2023/05/24 12:26:57;;;;;;;;;;;;;;;;;;7366581;19;1388;-63
2023/05/24 12:29:25;;;;;;;;;;;;;;;;;;7365866;19;881;-64
2023/05/24 12:31:53;;;;;;;;;;;;;;;;;;7366469;19;885;-64
2023/05/24 12:34:21;;;;;;;;;;;;;;;;;;7363597;19;869;-63
2023/05/24 12:36:50;;;;;;;;;;;;;;;;;;7366822;19;853;-63
2023/05/24 12:39:18;;;;;;;;;;;;;;;;;;7362848;19;1254;-63
2023/05/24 12:41:46;;;;;;;;;;;;;;;;;;7366252;19;823;-63
2023/05/24 12:44:14;;;;;;;;;;;;;;;;;;7366232;19;927;-62
2023/05/24 12:46:42;;;;;;;;;;;;;;;;;;7366269;19;928;-63
2023/05/24 12:49:10;;;;;;;;;;;;;;;;;;7362667;19;1274;-63
2023/05/24 12:51:39;;;;;;;;;;;;;;;;;;7365538;19;858;-63
2023/05/24 12:54:07;;;;;;;;;;;;;;;;;;7366227;19;875;-63
2023/05/24 12:56:35;;;;;;;;;;;;;;;;;;7362812;19;1841;-62
2023/05/24 12:59:03;;;;;;;;;;;;;;;;;;7363498;19;1269;-63
2023/05/24 13:01:31;;;;;;;;;;;;;;;;;;7365954;19;834;-63
2023/05/24 13:04:00;;;;;;;;;;;;;;;;;;7365367;19;789;-62
2023/05/24 13:06:28;;;;;;;;;;;;;;;;;;7365644;19;798;-62
2023/05/24 13:08:56;;;;;;;;;;;;;;;;;;7361389;19;1278;-62
2023/05/24 13:11:24;;;;;;;;;;;;;;;;;;7365321;19;884;-62
2023/05/24 13:13:52;;;;;;;;;;;;;;;;;;7366203;19;775;-63
2023/05/24 13:16:21;;;;;;;;;;;;;;;;;;7362725;19;1842;-62
2023/05/24 13:18:49;;;;;;;;;;;;;;;;;;7361960;19;1277;-63
2023/05/24 13:21:17;;;;;;;;;;;;;;;;;;7364618;19;826;-61
2023/05/24 13:23:46;;;;;;;;;;;;;;;;;;7365377;19;877;-63
2023/05/24 13:26:14;;;;;;;;;;;;;;;;;;7365471;19;812;-62
2023/05/24 13:28:42;;;;;;;;;;;;;;;;;;7361634;19;1278;-61
2023/05/24 13:31:10;;;;;;;;;;;;;;;;;;7364025;19;849;-61
2023/05/24 13:33:39;;;;;;;;;;;;;;;;;;7364580;19;797;-63
2023/05/24 13:36:07;;;;;;;;;;;;;;;;;;7361361;19;1854;-63
2023/05/24 13:38:35;;;;;;;;;;;;;;;;;;7361954;19;1353;-63
2023/05/24 13:41:03;;;;;;;;;;;;;;;;;;7364275;19;808;-61
2023/05/24 13:43:31;;;;;;;;;;;;;;;;;;7364291;19;795;-62
2023/05/24 13:45:59;;;;;;;;;;;;;;;;;;7363666;19;949;-63
2023/05/24 13:48:28;;;;;;;;;;;;;;;;;;7361867;19;1360;-62
2023/05/24 13:50:56;;;;;;;;;;;;;;;;;;7364330;19;801;-60
2023/05/24 13:53:25;;;;;;;;;;;;;;;;;;7363980;19;833;-62
2023/05/24 13:55:53;;;;;;;;;;;;;;;;;;7363308;19;1845;-60
2023/05/24 13:58:21;;;;;;;;;;;;;;;;;;7362062;19;1285;-59
2023/05/24 14:00:49;;;;;;;;;;;;;;;;;;7363914;19;727;-60
2023/05/24 14:03:17;;;;;;;;;;;;;;;;;;7364067;19;845;-63
2023/05/24 14:05:46;;;;;;;;;;;;;;;;;;7364635;19;822;-62
2023/05/24 14:08:14;;;;;;;;;;;;;;;;;;7362333;19;1262;-62
2023/05/24 14:10:42;;;;;;;;;;;;;;;;;;7364334;19;970;-64
2023/05/24 14:13:10;;;;;;;;;;;;;;;;;;7364585;19;739;-60
2023/05/24 14:15:38;;;;;;;;;;;;;;;;;;7361923;19;1854;-61
2023/05/24 14:18:06;;;;;;;;;;;;;;;;;;7362227;19;1318;-62
2023/05/24 14:20:35;;;;;;;;;;;;;;;;;;7365154;19;816;-65
2023/05/24 14:23:03;;;;;;;;;;;;;;;;;;7365668;19;821;-62
2023/05/24 14:25:31;;;;;;;;;;;;;;;;;;7366740;19;750;-62
2023/05/24 14:28:00;;;;;;;;;;;;;;;;;;7364942;19;1348;-61
2023/05/24 14:30:28;;;;;;;;;;;;;;;;;;7365993;19;728;-62
2023/05/24 14:32:56;;;;;;;;;;;;;;;;;;7363805;19;861;-63
2023/05/24 14:35:24;;;;;;;;;;;;;;;;;;7363756;19;1833;-62
2023/05/24 14:37:52;;;;;;;;;;;;;;;;;;7361411;19;1270;-62
2023/05/24 14:40:20;;;;;;;;;;;;;;;;;;7363254;19;952;-63
2023/05/24 14:42:49;;;;;;;;;;;;;;;;;;7362439;19;795;-63
2023/05/24 14:45:17;;;;;;;;;;;;;;;;;;7362564;19;774;-63
2023/05/24 14:47:45;;;;;;;;;;;;;;;;;;7360705;19;1298;-63
2023/05/24 14:50:13;;;;;;;;;;;;;;;;;;7362170;19;800;-63
2023/05/24 14:52:41;;;;;;;;;;;;;;;;;;7362349;19;845;-63
2023/05/24 14:55:09;;;;;;;;;;;;;;;;;;7362208;19;1860;-63
2023/05/24 14:57:37;;;;;;;;;;;;;;;;;;7361554;19;1246;-64
2023/05/24 15:00:06;;;;;;;;;;;;;;;;;;7368688;19;818;-63
2023/05/24 15:02:34;;;;;;;;;;;;;;;;;;7367912;19;748;-62
2023/05/24 15:05:02;;;;;;;;;;;;;;;;;;7367966;19;917;-63
2023/05/24 15:07:31;;;;;;;;;;;;;;;;;;7368072;19;1344;-62
2023/05/24 15:09:59;;;;;;;;;;;;;;;;;;7367575;19;814;-63
2023/05/24 15:12:27;;;;;;;;;;;;;;;;;;7368632;19;794;-61
2023/05/24 15:14:55;;;;;;;;;;;;;;;;;;7368001;19;892;-63
2023/05/24 15:17:23;;;;;;;;;;;;;;;;;;7366458;19;1821;-63
2023/05/24 15:19:52;;;;;;;;;;;;;;;;;;7367750;19;726;-61
2023/05/24 15:22:20;;;;;;;;;;;;;;;;;;7367809;19;864;-62
2023/05/24 15:24:48;;;;;;;;;;;;;;;;;;7367728;19;811;-63
2023/05/24 15:27:16;;;;;;;;;;;;;;;;;;7368469;19;1305;-62
2023/05/24 15:29:45;;;;;;;;;;;;;;;;;;7368009;19;786;-63
2023/05/24 15:32:13;;;;;;;;;;;;;;;;;;7367766;19;826;-64
2023/05/24 15:34:41;;;;;;;;;;;;;;;;;;7368074;19;1971;-64
2023/05/24 15:37:09;;;;;;;;;;;;;;;;;;7367195;19;1886;-63
2023/05/24 15:39:37;;;;;;;;;;;;;;;;;;7366912;19;2330;-63
2023/05/24 15:42:06;;;;;;;;;;;;;;;;;;7367682;19;1893;-63
2023/05/24 15:44:34;;;;;;;;;;;;;;;;;;7369987;19;1774;-63
2023/05/24 15:47:02;;;;;;;;;;;;;;;;;;7369239;19;1774;-62
2023/05/24 15:49:30;;;;;;;;;;;;;;;;;;7370043;19;1946;-63
2023/05/24 15:51:58;;;;;;;;;;;;;;;;;;7368921;19;1754;-59
2023/05/24 15:54:27;;;;;;;;;;;;;;;;;;7370346;19;1610;-61
2023/05/24 15:56:55;;;;;;;;;;;;;;;;;;7368902;19;1842;-63
2023/05/24 15:59:23;;;;;;;;;;;;;;;;;;7369009;19;1897;-63
2023/05/24 16:01:51;;;;;;;;;;;;;;;;;;7368939;19;1796;-62
2023/05/24 16:04:19;;;;;;;;;;;;;;;;;;7368552;19;1753;-63
2023/05/24 16:06:48;;;;;;;;;;;;;;;;;;7369089;19;1732;-63
2023/05/24 16:09:16;;;;;;;;;;;;;;;;;;7366616;19;1743;-63
2023/05/24 16:11:44;;;;;;;;;;;;;;;;;;7369983;19;1890;-63
2023/05/24 16:14:12;;;;;;;;;;;;;;;;;;7368767;19;1660;-60
2023/05/24 16:16:40;;;;;;;;;;;;;;;;;;7367682;19;1844;-63
2023/05/24 16:19:08;;;;;;;;;;;;;;;;;;7367213;19;1813;-61
2023/05/24 16:21:36;;;;;;;;;;;;;;;;;;7366385;19;1906;-61
2023/05/24 16:24:05;;;;;;;;;;;;;;;;;;7367074;19;1972;-62
2023/05/24 16:26:33;;;;;;;;;;;;;;;;;;7368731;19;1660;-61
2023/05/24 16:29:01;;;;;;;;;;;;;;;;;;7366898;19;1932;-62
2023/05/24 16:31:29;;;;;;;;;;;;;;;;;;7367767;19;2013;-59
2023/05/24 16:33:57;;;;;;;;;;;;;;;;;;7365970;19;2085;-63
2023/05/24 16:36:25;;;;;;;;;;;;;;;;;;7365558;19;1918;-61
2023/05/24 16:38:54;;;;;;;;;;;;;;;;;;7361011;19;2133;-60
2023/05/24 16:41:22;;;;;;;;;;;;;;;;;;7368137;19;1632;-58
2023/05/24 16:43:50;;;;;;;;;;;;;;;;;;7368455;19;1904;-60
2023/05/24 16:46:18;;;;;;;;;;;;;;;;;;7369144;19;2002;-60
2023/05/24 16:48:46;;;;;;;;;;;;;;;;;;7365953;19;1914;-61
2023/05/24 16:51:15;;;;;;;;;;;;;;;;;;7366437;19;1891;-61
2023/05/24 16:53:43;;;;;;;;;;;;;;;;;;7368562;19;1798;-62
2023/05/24 16:56:11;;;;;;;;;;;;;;;;;;7363246;19;1915;-63
2023/05/24 16:58:39;;;;;;;;;;;;;;;;;;7363417;19;2084;-62
2023/05/24 17:01:08;;;;;;;;;;;;;;;;;;7367323;19;1957;-62
2023/05/24 17:03:36;;;;;;;;;;;;;;;;;;7365523;19;1836;-63
2023/05/24 17:06:05;;;;;;;;;;;;;;;;;;7366285;19;1737;-63
2023/05/24 17:08:33;;;;;;;;;;;;;;;;;;7367226;19;2157;-62
2023/05/24 17:11:01;;;;;;;;;;;;;;;;;;7369007;19;1722;-61
2023/05/24 17:13:30;;;;;;;;;;;;;;;;;;7363289;19;1628;-65
2023/05/24 17:15:58;;;;;;;;;;;;;;;;;;7366707;19;2094;-62